Time;durP1;ratioP1;P1;durP2;ratioP2;P2;SDS_P1;SDS_P2;PMS_P1;PMS_P2;Temp;Humidity;BMP_temperature;BMP_pressure;BME280_temperature;BME280_humidity;BME280_pressure;Samples;Min_cycle;Max_cycle;Signal;HPM_P1;HPM_P2
2022/04/18 00:02:24;;;;;;;;;;;;;;;9.43;59.73;100093.12;4353134;32;20002;-88
2022/04/18 00:04:49;;;;;;;;;;;;;;;9.41;59.73;100092.28;4365063;32;20214;-89
2022/04/18 00:07:14;;;;;;;;;;;;;;;9.46;59.73;100093.06;4364872;32;19982;-89
2022/04/18 00:09:40;;;;;;;;;;;;;;;9.48;59.72;100082.66;4365124;32;20348;-90
2022/04/18 00:12:05;;;;;;;;;;;;;;;9.43;59.73;100087.06;4365250;32;20233;-90
2022/04/18 00:14:30;;;;;;;;;;;;;;;9.32;59.71;100083.84;4365284;32;19991;-90
2022/04/18 00:16:56;;;;;;;;;;;;;;;9.04;59.71;100089.62;4365181;32;20013;-90
2022/04/18 00:19:21;;;;;;;;;;;;;;;9.16;59.71;100088.50;4352761;32;20272;-90
2022/04/18 00:21:47;;;;;;;;;;;;;;;8.92;59.70;100082.94;4365189;32;20034;-90
2022/04/18 00:24:14;;;;;;;;;;;;;;;8.96;59.71;100088.06;4352861;32;20399;-89
2022/04/18 00:26:39;;;;;;;;;;;;;;;8.88;59.69;100075.25;4365165;32;20655;-91
2022/04/18 00:29:05;;;;;;;;;;;;;;;8.70;59.69;100078.19;4353524;32;19979;-94
2022/04/18 00:31:30;;;;;;;;;;;;;;;8.77;59.69;100079.81;4354257;32;20013;-92
2022/04/18 00:33:55;;;;;;;;;;;;;;;8.56;59.67;100073.28;4353236;32;19993;-91
2022/04/18 00:36:21;;;;;;;;;;;;;;;8.51;59.68;100075.06;4352794;32;19987;-89
2022/04/18 00:38:46;;;;;;;;;;;;;;;8.62;59.68;100067.97;4353427;32;19983;-89
2022/04/18 00:41:11;;;;;;;;;;;;;;;8.55;59.68;100071.56;4354733;32;20047;-89
2022/04/18 00:43:40;;;;;;;;;;;;;;;8.51;59.68;100070.75;4353022;32;20005;-88
2022/04/18 00:46:06;;;;;;;;;;;;;;;8.54;59.68;100073.31;4365105;32;19991;-89
2022/04/18 00:48:31;;;;;;;;;;;;;;;8.47;59.67;100069.09;4364862;32;19993;-89
2022/04/18 00:50:56;;;;;;;;;;;;;;;8.50;59.67;100066.44;4352405;32;20001;-89
2022/04/18 00:53:22;;;;;;;;;;;;;;;8.52;59.68;100061.25;4352513;32;20386;-90
2022/04/18 00:55:47;;;;;;;;;;;;;;;8.57;59.68;100059.41;4352345;32;20001;-90
2022/04/18 00:58:12;;;;;;;;;;;;;;;8.61;59.68;100058.47;4364808;32;20312;-89
2022/04/18 01:00:37;;;;;;;;;;;;;;;8.60;59.69;100056.75;4352133;32;20296;-90
2022/04/18 01:03:03;;;;;;;;;;;;;;;8.59;59.68;100055.91;4352121;32;20031;-88
2022/04/18 01:05:28;;;;;;;;;;;;;;;8.62;59.68;100055.00;4352050;32;20292;-89
2022/04/18 01:07:53;;;;;;;;;;;;;;;8.57;59.69;100052.50;4364616;32;19971;-91
2022/04/18 01:10:18;;;;;;;;;;;;;;;8.49;59.67;100050.91;4352215;32;20371;-89
2022/04/18 01:12:44;;;;;;;;;;;;;;;8.47;59.67;100045.75;4352043;32;20033;-89
2022/04/18 01:15:09;;;;;;;;;;;;;;;8.71;59.68;100049.59;4351916;32;19998;-90
2022/04/18 01:17:34;;;;;;;;;;;;;;;8.42;59.66;100039.78;4352067;32;20027;-90
2022/04/18 01:20:00;;;;;;;;;;;;;;;8.32;59.67;100043.41;4379411;32;20045;-93
2022/04/18 01:22:25;;;;;;;;;;;;;;;8.21;59.65;100034.97;4353318;32;19991;-92
2022/04/18 01:30:18;;;;;;;;;;;;;;;8.37;59.67;100026.06;4367264;32;20374;-92
2022/04/18 01:32:44;;;;;;;;;;;;;;;8.27;59.66;100027.06;4352421;32;20006;-91
2022/04/18 01:35:09;;;;;;;;;;;;;;;8.30;59.66;100022.69;4352264;32;19995;-89
2022/04/18 01:37:36;;;;;;;;;;;;;;;8.41;59.66;100019.94;4351994;32;19985;-90
2022/04/18 01:40:02;;;;;;;;;;;;;;;8.40;59.67;100015.62;4352143;32;20003;-91
2022/04/18 01:42:27;;;;;;;;;;;;;;;8.55;59.67;100009.31;4352419;32;20002;-92
2022/04/18 01:44:52;;;;;;;;;;;;;;;8.38;59.67;100011.34;4352206;32;20029;-90
2022/04/18 01:47:20;;;;;;;;;;;;;;;8.10;59.65;100013.56;4370103;32;19975;-96
2022/04/18 01:49:45;;;;;;;;;;;;;;;8.19;59.65;100008.22;4358957;32;19999;-96
2022/04/18 01:52:11;;;;;;;;;;;;;;;8.30;59.66;100009.72;4357717;32;19986;-96
2022/04/18 01:54:36;;;;;;;;;;;;;;;8.27;59.66;100008.91;4356099;32;20005;-94
2022/04/18 01:57:01;;;;;;;;;;;;;;;8.26;59.65;100008.06;4356815;32;20311;-96
2022/04/18 01:59:26;;;;;;;;;;;;;;;8.42;59.66;99990.50;4356603;32;20018;-93
2022/04/18 02:01:52;;;;;;;;;;;;;;;8.45;59.67;99993.03;4355079;32;19987;-89
2022/04/18 02:04:17;;;;;;;;;;;;;;;8.46;59.67;99992.16;4353463;32;20016;-89
2022/04/18 02:06:42;;;;;;;;;;;;;;;8.39;59.66;99985.37;4354547;32;19999;-92
2022/04/18 02:09:07;;;;;;;;;;;;;;;8.27;59.66;99986.44;4354884;32;20249;-92
2022/04/18 02:11:33;;;;;;;;;;;;;;;8.39;59.67;99984.53;4355090;32;20013;-92
2022/04/18 02:13:58;;;;;;;;;;;;;;;8.30;59.66;99982.94;4355292;32;20029;-91
2022/04/18 02:16:23;;;;;;;;;;;;;;;8.48;59.67;99986.94;4354012;32;19998;-90
2022/04/18 02:18:49;;;;;;;;;;;;;;;8.56;59.67;99979.88;4353736;32;20351;-90
2022/04/18 02:21:16;;;;;;;;;;;;;;;8.57;59.67;99981.56;4353744;32;20111;-91
2022/04/18 02:23:41;;;;;;;;;;;;;;;8.44;59.67;99980.09;4354391;32;19987;-91
2022/04/18 02:26:07;;;;;;;;;;;;;;;8.39;59.67;99963.78;4353920;32;19978;-91
2022/04/18 02:28:32;;;;;;;;;;;;;;;8.44;59.67;99969.72;4353777;32;20049;-90
2022/04/18 02:30:57;;;;;;;;;;;;;;;8.45;59.67;99968.84;4366246;32;19990;-91
2022/04/18 02:33:23;;;;;;;;;;;;;;;8.42;59.66;99966.31;4353686;32;20031;-91
2022/04/18 02:35:48;;;;;;;;;;;;;;;8.53;59.68;99965.22;4353696;32;19975;-90
2022/04/18 02:38:13;;;;;;;;;;;;;;;8.43;59.66;99961.09;4354154;32;19994;-92
2022/04/18 02:40:39;;;;;;;;;;;;;;;8.50;59.67;99959.22;4354498;32;19994;-92
2022/04/18 02:43:05;;;;;;;;;;;;;;;8.45;59.67;99961.06;4366835;32;20363;-92
2022/04/18 02:45:31;;;;;;;;;;;;;;;8.26;59.66;99952.75;4354592;32;19993;-92
2022/04/18 02:47:56;;;;;;;;;;;;;;;8.55;59.67;99947.03;4355307;32;20635;-92
2022/04/18 02:50:22;;;;;;;;;;;;;;;8.39;59.67;99956.00;4354656;32;20005;-93
2022/04/18 02:52:47;;;;;;;;;;;;;;;8.46;59.67;99948.06;4354201;32;24883;-90
2022/04/18 02:55:12;;;;;;;;;;;;;;;8.38;59.66;99951.69;4353602;32;20332;-90
2022/04/18 02:57:37;;;;;;;;;;;;;;;8.38;59.66;99947.37;4354130;32;19987;-93
2022/04/18 03:00:03;;;;;;;;;;;;;;;8.40;59.67;99944.72;4354354;32;20363;-89
2022/04/18 03:02:28;;;;;;;;;;;;;;;8.45;59.67;99951.53;4365755;32;20301;-91
2022/04/18 03:04:53;;;;;;;;;;;;;;;8.23;59.65;99942.44;4354204;32;19997;-95
2022/04/18 03:07:19;;;;;;;;;;;;;;;8.21;59.65;99939.03;4353975;32;20002;-89
2022/04/18 03:09:44;;;;;;;;;;;;;;;8.28;59.65;99938.00;4353011;32;20422;-89
2022/04/18 03:12:10;;;;;;;;;;;;;;;8.28;59.65;99936.28;4353546;32;20072;-91
2022/04/18 03:14:35;;;;;;;;;;;;;;;8.23;59.65;99939.84;4354177;32;19990;-91
2022/04/18 03:17:00;;;;;;;;;;;;;;;8.40;59.66;99934.38;4357899;32;20026;-89
2022/04/18 03:19:25;;;;;;;;;;;;;;;8.23;59.66;99929.47;4356959;32;20030;-91
2022/04/18 03:21:51;;;;;;;;;;;;;;;8.43;59.66;99929.97;4355268;32;20314;-90
2022/04/18 03:24:16;;;;;;;;;;;;;;;8.37;59.67;99931.84;4354316;32;20018;-92
2022/04/18 03:26:41;;;;;;;;;;;;;;;8.11;59.64;99933.16;4353103;32;20037;-91
2022/04/18 03:29:07;;;;;;;;;;;;;;;8.27;59.65;99926.78;4353535;32;20002;-91
2022/04/18 03:31:32;;;;;;;;;;;;;;;8.30;59.66;99925.87;4353846;32;20260;-92
2022/04/18 03:33:57;;;;;;;;;;;;;;;8.43;59.66;99923.91;4354151;32;19979;-92
2022/04/18 03:41:51;;;;;;;;;;;;;;;8.42;59.66;99917.03;4367184;32;20002;-88
2022/04/18 03:44:17;;;;;;;;;;;;;;;8.36;59.65;99922.34;4365082;32;19999;-88
2022/04/18 03:46:43;;;;;;;;;;;;;;;8.36;59.65;99922.34;4352674;32;19999;-88
2022/04/18 03:49:08;;;;;;;;;;;;;;;8.38;59.66;99907.59;4364617;32;19987;-88
2022/04/18 03:51:33;;;;;;;;;;;;;;;8.44;59.67;99912.66;4365070;32;19993;-91
2022/04/18 03:53:58;;;;;;;;;;;;;;;8.29;59.66;99912.06;4353282;32;20371;-93
2022/04/18 03:56:24;;;;;;;;;;;;;;;8.31;59.66;99901.66;4353945;32;20025;-93
2022/04/18 03:58:49;;;;;;;;;;;;;;;8.42;59.66;99906.66;4354379;32;20005;-94
2022/04/18 04:01:14;;;;;;;;;;;;;;;8.36;59.65;99894.66;4352838;32;19991;-92
2022/04/18 04:03:39;;;;;;;;;;;;;;;8.40;59.67;99900.63;4353936;32;20288;-90
2022/04/18 04:06:05;;;;;;;;;;;;;;;8.44;59.67;99900.53;4354200;32;19987;-95
2022/04/18 04:08:32;;;;;;;;;;;;;;;8.28;59.65;99901.69;4353198;32;20356;-93
2022/04/18 04:10:57;;;;;;;;;;;;;;;8.30;59.66;99900.81;4354764;32;20014;-93
2022/04/18 04:13:23;;;;;;;;;;;;;;;8.29;59.66;99895.66;4354408;32;19987;-93
2022/04/18 04:15:48;;;;;;;;;;;;;;;8.31;59.66;99902.50;4366845;32;20058;-93
2022/04/18 04:18:13;;;;;;;;;;;;;;;8.29;59.66;99901.69;4353849;32;19995;-93
2022/04/18 04:20:39;;;;;;;;;;;;;;;8.36;59.67;99899.00;4354103;32;20029;-92
2022/04/18 04:23:04;;;;;;;;;;;;;;;8.41;59.66;99900.59;4353480;32;19970;-92
2022/04/18 04:25:29;;;;;;;;;;;;;;;8.37;59.67;99898.97;4353702;32;20340;-93
2022/04/18 04:27:54;;;;;;;;;;;;;;;8.41;59.66;99899.75;4354352;32;20145;-94
2022/04/18 04:30:20;;;;;;;;;;;;;;;8.46;59.67;99898.75;4353871;32;20025;-92
2022/04/18 04:32:45;;;;;;;;;;;;;;;8.47;59.67;99897.03;4353614;32;19979;-91
2022/04/18 04:35:10;;;;;;;;;;;;;;;8.47;59.67;99899.63;4353298;32;20334;-92
2022/04/18 04:37:35;;;;;;;;;;;;;;;8.59;59.68;99886.41;4353625;32;19993;-92
2022/04/18 04:40:01;;;;;;;;;;;;;;;8.58;59.67;99895.06;4353746;32;20046;-93
2022/04/18 04:42:26;;;;;;;;;;;;;;;8.62;59.67;99894.13;4353805;32;19987;-93
2022/04/18 04:44:51;;;;;;;;;;;;;;;8.68;59.68;99893.97;4354144;32;20312;-94
2022/04/18 04:47:16;;;;;;;;;;;;;;;8.76;59.68;99891.22;4354015;32;20355;-92
2022/04/18 04:49:42;;;;;;;;;;;;;;;8.65;59.68;99894.03;4354890;32;19999;-92
2022/04/18 04:52:07;;;;;;;;;;;;;;;8.74;59.69;99892.97;4352009;32;19989;-90
2022/04/18 04:54:33;;;;;;;;;;;;;;;8.74;59.68;99886.03;4352576;32;19998;-92
2022/04/18 04:56:58;;;;;;;;;;;;;;;8.88;59.68;99889.19;4353818;32;19991;-93
2022/04/18 04:59:23;;;;;;;;;;;;;;;8.93;59.69;99878.69;4353945;32;19997;-94
2022/04/18 05:01:48;;;;;;;;;;;;;;;8.84;59.69;99881.50;4354581;32;19985;-93
2022/04/18 05:04:14;;;;;;;;;;;;;;;9.08;59.70;99874.91;4353979;32;20034;-93
2022/04/18 05:06:40;;;;;;;;;;;;;;;9.00;59.69;99888.06;4354110;32;20001;-93
2022/04/18 05:09:06;;;;;;;;;;;;;;;9.30;59.71;99877.84;4353960;32;20716;-94
2022/04/18 05:11:32;;;;;;;;;;;;;;;9.26;59.71;99879.66;4353706;32;19992;-93
2022/04/18 05:13:57;;;;;;;;;;;;;;;9.36;59.72;99886.31;4353040;32;19995;-93
2022/04/18 05:16:22;;;;;;;;;;;;;;;9.49;59.73;99884.28;4354064;32;19999;-93
2022/04/18 05:18:47;;;;;;;;;;;;;;;9.53;59.72;99881.56;4353032;32;19995;-93
2022/04/18 05:21:13;;;;;;;;;;;;;;;9.51;59.73;99875.56;4353073;32;19990;-94
2022/04/18 05:29:03;;;;;;;;;;;;;;;9.61;59.73;99885.69;4994352;27;20702;-94
2022/04/18 05:31:28;;;;;;;;;;;;;;;9.72;59.74;99873.28;4325560;33;19984;-96
2022/04/18 05:33:54;;;;;;;;;;;;;;;9.83;59.74;99877.28;4324213;33;19992;-96
2022/04/18 05:36:20;;;;;;;;;;;;;;;9.96;59.75;99867.44;4325871;33;20010;-92
2022/04/18 05:38:45;;;;;;;;;;;;;;;10.05;59.76;99868.91;4324100;33;19987;-92
2022/04/18 05:41:10;;;;;;;;;;;;;;;10.17;59.77;99863.34;4324056;33;20298;-96
2022/04/18 05:43:36;;;;;;;;;;;;;;;10.22;59.76;99869.31;4325330;33;20243;-96
2022/04/18 05:46:01;;;;;;;;;;;;;;;10.21;59.76;99864.16;4325093;33;20282;-95
2022/04/18 05:48:27;;;;;;;;;;;;;;;10.32;59.77;99865.53;4315309;33;19993;-91
2022/04/18 05:51:02;;;;;;;;;;;;;;;;;;;;;
2022/04/18 05:54:05;;;;;;;;;;;;;;;;;;;;;
2022/04/18 05:56:36;;;;;;;;;;;;;;;10.49;59.78;99869.41;4341846;33;35917;-94
2022/04/18 05:59:01;;;;;;;;;;;;;;;10.71;59.79;99868.72;4329863;33;20051;-93
2022/04/18 06:01:28;;;;;;;;;;;;;;;10.70;59.79;99867.03;4325386;33;19989;-93
2022/04/18 06:03:57;;;;;;;;;;;;;;;10.92;59.81;99866.34;4323349;33;20050;-92
2022/04/18 06:06:47;;;;;;;;;;;;;;;11.10;59.81;99860.53;4323527;33;19995;-92
2022/04/18 06:09:39;;;;;;;;;;;;;;;11.24;59.82;99860.09;4323506;33;19988;-94
2022/04/18 06:12:07;;;;;;;;;;;;;;;11.25;59.83;99857.44;4323293;33;20007;-94
2022/04/18 06:14:40;;;;;;;;;;;;;;;11.21;59.82;99857.59;4323041;33;19999;-93
2022/04/18 06:17:05;;;;;;;;;;;;;;;11.00;59.81;99857.38;4323322;33;20007;-94
2022/04/18 06:19:35;;;;;;;;;;;;;;;11.22;59.83;99854.94;4346985;33;19990;-96
2022/04/18 06:22:23;;;;;;;;;;;;;;;11.47;59.83;99862.78;4336191;33;19988;-96
2022/04/18 06:25:26;;;;;;;;;;;;;;;11.54;59.84;99860.81;4348296;33;19960;-96
2022/04/18 06:28:20;;;;;;;;;;;;;;;11.53;59.84;99857.34;4333298;33;19964;-96
2022/04/18 06:31:54;;;;;;;;;;;;;;;;;;;;;
2022/04/18 06:47:25;;;;;;;;;;;;;;;12.10;59.87;99855.41;4345037;28;20023;-93
2022/04/18 06:49:50;;;;;;;;;;;;;;;12.23;59.88;99848.81;4307081;33;27332;-92
2022/04/18 06:52:15;;;;;;;;;;;;;;;12.17;59.87;99847.28;4295382;33;20047;-93
2022/04/18 06:54:40;;;;;;;;;;;;;;;12.38;59.88;99853.47;4295595;33;19988;-94
2022/04/18 06:57:07;;;;;;;;;;;;;;;12.36;59.88;99849.22;4295304;33;20306;-93
2022/04/18 06:59:32;;;;;;;;;;;;;;;12.33;59.88;99852.81;4295433;33;20387;-93
2022/04/18 07:01:58;;;;;;;;;;;;;;;12.24;59.88;99851.38;4295358;33;20000;-93
2022/04/18 07:04:23;;;;;;;;;;;;;;;12.55;59.89;99853.69;4307639;33;19976;-93
2022/04/18 07:06:49;;;;;;;;;;;;;;;12.67;59.90;99854.13;4295473;33;20036;-93
2022/04/18 07:09:14;;;;;;;;;;;;;;;12.79;59.90;99853.66;4295662;33;20000;-93
2022/04/18 07:11:44;;;;;;;;;;;;;;;12.72;59.91;99853.00;4295579;33;19994;-92
2022/04/18 07:14:10;;;;;;;;;;;;;;;12.51;59.89;99857.31;4296938;33;20000;-93
2022/04/18 07:16:35;;;;;;;;;;;;;;;12.64;59.89;99852.47;4307310;33;20062;-94
2022/04/18 07:19:00;;;;;;;;;;;;;;;12.73;59.90;99851.25;4295607;33;20024;-93
2022/04/18 07:21:26;;;;;;;;;;;;;;;12.68;59.91;99848.84;4295478;33;19980;-91
2022/04/18 07:23:51;;;;;;;;;;;;;;;12.80;59.91;99853.59;4295611;33;20031;-93
2022/04/18 07:26:16;;;;;;;;;;;;;;;12.75;59.91;99857.28;4305424;33;20239;-93
2022/04/18 07:28:41;;;;;;;;;;;;;;;12.49;59.89;99851.28;4309959;33;20269;-93
2022/04/18 07:31:07;;;;;;;;;;;;;;;12.30;59.88;99855.50;4310044;33;20027;-93
2022/04/18 07:33:32;;;;;;;;;;;;;;;12.19;59.87;99855.06;4310001;33;20007;-93
2022/04/18 07:35:58;;;;;;;;;;;;;;;12.20;59.88;99851.53;4309890;33;20014;-93
2022/04/18 07:41:07;;;;;;;;;;;;;;;12.19;59.87;99847.22;4335167;33;19994;-93
2022/04/18 07:43:35;;;;;;;;;;;;;;;12.38;59.88;99852.62;4309507;33;19996;-92
2022/04/18 07:46:03;;;;;;;;;;;;;;;12.18;59.87;99853.38;4309891;33;20392;-92
2022/04/18 07:48:29;;;;;;;;;;;;;;;11.89;59.86;99852.66;4321778;33;20664;-94
2022/04/18 07:53:39;;;;;;;;;;;;;;;12.06;59.87;99849.44;4323497;33;19995;-93
2022/04/18 07:56:04;;;;;;;;;;;;;;;11.75;59.84;99856.63;4321257;33;20007;-93
2022/04/18 07:58:29;;;;;;;;;;;;;;;11.60;59.85;99850.19;4321867;33;20043;-93
2022/04/18 08:00:54;;;;;;;;;;;;;;;11.60;59.85;99853.66;4309427;33;20001;-92
2022/04/18 08:03:20;;;;;;;;;;;;;;;11.45;59.84;99863.75;4309432;33;19995;-93
2022/04/18 08:05:45;;;;;;;;;;;;;;;11.50;59.83;99862.69;4309257;33;20059;-93
2022/04/18 08:08:10;;;;;;;;;;;;;;;11.63;59.84;99858.75;4309284;33;20034;-93
2022/04/18 08:10:36;;;;;;;;;;;;;;;11.72;59.85;99852.38;4321375;33;20012;-93
2022/04/18 08:13:02;;;;;;;;;;;;;;;11.86;59.86;99844.94;4309267;33;19987;-93
2022/04/18 08:15:27;;;;;;;;;;;;;;;12.04;59.86;99839.97;4309014;33;20360;-93
2022/04/18 08:17:53;;;;;;;;;;;;;;;12.38;59.89;99835.19;4321372;33;19996;-90
2022/04/18 08:20:18;;;;;;;;;;;;;;;12.78;59.91;99833.66;4308985;33;20049;-93
2022/04/18 08:22:43;;;;;;;;;;;;;;;13.19;59.94;99829.38;4308910;33;20023;-94
2022/04/18 08:25:09;;;;;;;;;;;;;;;13.43;59.94;99820.53;4308776;33;20003;-91
2022/04/18 08:27:34;;;;;;;;;;;;;;;13.58;59.96;99815.56;4309212;33;20012;-94
2022/04/18 08:30:00;;;;;;;;;;;;;;;13.46;59.94;99816.91;4309102;33;19988;-90
2022/04/18 08:32:25;;;;;;;;;;;;;;;13.78;59.96;99807.69;4309028;33;19980;-93
2022/04/18 08:34:50;;;;;;;;;;;;;;;13.89;59.97;99801.97;4309073;33;20010;-93
2022/04/18 08:37:15;;;;;;;;;;;;;;;14.19;59.99;99799.72;4308715;33;20019;-92
2022/04/18 08:39:41;;;;;;;;;;;;;;;14.36;60.00;99805.03;4308496;33;22382;-92
2022/04/18 08:42:06;;;;;;;;;;;;;;;14.32;60.00;99787.78;4308670;33;26892;-92
2022/04/18 08:44:34;;;;;;;;;;;;;;;14.68;60.01;99786.09;4321018;33;19992;-91
2022/04/18 08:47:00;;;;;;;;;;;;;;;14.97;60.03;99781.19;4321322;33;20066;-93
2022/04/18 08:54:53;;;;;;;;;;;;;;;15.95;60.09;99769.97;4323228;33;19998;-93
2022/04/18 08:57:18;;;;;;;;;;;;;;;15.95;60.08;99767.34;4308956;33;20000;-93
2022/04/18 08:59:44;;;;;;;;;;;;;;;15.96;60.09;99762.94;4321214;33;20433;-94
2022/04/18 09:02:09;;;;;;;;;;;;;;;16.25;60.10;99762.22;4308342;33;29081;-93
2022/04/18 09:04:35;;;;;;;;;;;;;;;16.49;60.11;99754.75;4307302;33;20364;-93
2022/04/18 09:07:13;;;;;;;;;;;;;;;16.75;60.12;99758.56;4309083;33;19999;-93
2022/04/18 09:09:38;;;;;;;;;;;;;;;16.84;60.12;99747.53;4309010;33;19980;-94
2022/04/18 09:12:05;;;;;;;;;;;;;;;17.02;60.14;99750.84;4320937;33;19990;-93
2022/04/18 09:14:31;;;;;;;;;;;;;;;16.78;60.13;99749.63;4309029;33;20035;-94
2022/04/18 09:16:56;;;;;;;;;;;;;;;16.82;60.13;99752.03;4309149;33;20007;-93
2022/04/18 09:19:22;;;;;;;;;;;;;;;16.54;60.12;99750.06;4321509;33;19994;-93
2022/04/18 09:22:00;;;;;;;;;;;;;;;16.24;60.10;99757.87;4310296;33;19987;-92
2022/04/18 09:24:32;;;;;;;;;;;;;;;15.79;60.08;99755.13;4311531;33;20012;-93
2022/04/18 09:27:12;;;;;;;;;;;;;;;15.33;60.05;99747.84;4309437;33;20381;-92
2022/04/18 09:29:40;;;;;;;;;;;;;;;15.17;60.05;99752.19;4308275;33;19979;-93
2022/04/18 09:32:12;;;;;;;;;;;;;;;14.97;60.03;99747.13;4320508;33;19984;-92
2022/04/18 09:34:37;;;;;;;;;;;;;;;14.93;60.03;99746.41;4320413;33;20671;-93
2022/04/18 09:37:12;;;;;;;;;;;;;;;14.90;60.02;99741.31;4320549;33;19996;-93
2022/04/18 09:39:40;;;;;;;;;;;;;;;14.87;60.03;99741.47;4308296;33;19999;-90
2022/04/18 09:42:11;;;;;;;;;;;;;;;15.11;60.04;99730.66;4308273;33;20015;-93
2022/04/18 09:44:37;;;;;;;;;;;;;;;15.30;60.05;99740.16;4308353;33;20338;-92
2022/04/18 09:47:03;;;;;;;;;;;;;;;15.59;60.06;99722.91;4320045;33;20039;-93
2022/04/18 09:49:40;;;;;;;;;;;;;;;15.22;60.04;99721.34;4307998;33;19989;-93
2022/04/18 09:52:07;;;;;;;;;;;;;;;15.27;60.05;99713.22;4320174;33;20002;-93
2022/04/18 09:54:32;;;;;;;;;;;;;;;15.82;60.08;99707.72;4320175;33;20077;-93
2022/04/18 09:57:01;;;;;;;;;;;;;;;16.08;60.09;99699.25;4319428;33;25357;-92
2022/04/18 09:59:27;;;;;;;;;;;;;;;16.30;60.11;99693.66;4307793;33;20044;-92
2022/04/18 10:01:52;;;;;;;;;;;;;;;16.63;60.12;99690.06;4307887;33;19988;-93
2022/04/18 10:04:17;;;;;;;;;;;;;;;17.03;60.14;99692.06;4307821;33;19987;-92
2022/04/18 10:06:45;;;;;;;;;;;;;;;17.11;60.15;99686.34;4308153;33;20423;-93
2022/04/18 10:09:10;;;;;;;;;;;;;;;17.25;60.15;99682.88;4308265;33;20047;-93
2022/04/18 10:11:35;;;;;;;;;;;;;;;16.78;60.13;99682.13;4319690;33;20345;-93
2022/04/18 10:14:03;;;;;;;;;;;;;;;16.48;60.11;99676.00;4307495;33;19991;-94
2022/04/18 10:16:28;;;;;;;;;;;;;;;16.65;60.12;99673.25;4309941;33;19978;-93
2022/04/18 10:18:54;;;;;;;;;;;;;;;16.73;60.13;99672.84;4309322;33;28710;-93
2022/04/18 10:21:19;;;;;;;;;;;;;;;16.91;60.13;99677.03;4309787;33;20385;-93
2022/04/18 10:24:08;;;;;;;;;;;;;;;16.81;60.12;99673.25;4322257;33;19988;-91
2022/04/18 10:26:43;;;;;;;;;;;;;;;17.07;60.15;99662.03;4310261;33;19995;-92
2022/04/18 10:29:10;;;;;;;;;;;;;;;17.09;60.15;99659.31;4322213;33;19979;-90
2022/04/18 10:31:39;;;;;;;;;;;;;;;17.11;60.15;99654.81;4309976;33;19984;-91
2022/04/18 10:34:05;;;;;;;;;;;;;;;16.77;60.13;99661.19;4310072;33;20389;-90
2022/04/18 10:36:31;;;;;;;;;;;;;;;16.72;60.13;99653.59;4322118;33;20037;-90
2022/04/18 10:38:57;;;;;;;;;;;;;;;16.40;60.11;99657.22;4310032;33;19988;-91
2022/04/18 10:41:32;;;;;;;;;;;;;;;16.35;60.10;99661.91;4322042;33;20022;-91
2022/04/18 10:43:58;;;;;;;;;;;;;;;16.27;60.10;99662.31;4309851;33;19991;-90
2022/04/18 10:46:23;;;;;;;;;;;;;;;16.12;60.09;99663.19;4335499;33;20306;-91
2022/04/18 10:48:53;;;;;;;;;;;;;;;15.64;60.07;99663.19;4309713;33;19983;-91
2022/04/18 10:51:36;;;;;;;;;;;;;;;15.81;60.08;99659.63;4310126;33;19987;-91
2022/04/18 10:54:05;;;;;;;;;;;;;;;15.83;60.07;99656.91;4310532;33;20000;-92
2022/04/18 10:56:50;;;;;;;;;;;;;;;16.08;60.10;99651.16;4309764;33;20373;-92
2022/04/18 10:59:16;;;;;;;;;;;;;;;16.50;60.11;99646.09;4309647;33;20047;-92
2022/04/18 11:01:44;;;;;;;;;;;;;;;16.84;60.14;99631.84;4309867;33;19956;-92
2022/04/18 11:04:10;;;;;;;;;;;;;;;17.26;60.16;99622.28;4310497;33;20052;-91
2022/04/18 11:06:36;;;;;;;;;;;;;;;17.42;60.17;99620.41;4309817;33;20027;-91
2022/04/18 11:09:19;;;;;;;;;;;;;;;17.53;60.17;99616.28;4322629;33;20337;-92
2022/04/18 11:11:48;;;;;;;;;;;;;;;17.95;60.20;99616.19;4310039;33;20006;-91
2022/04/18 11:14:13;;;;;;;;;;;;;;;17.98;60.19;99615.16;4322851;33;20009;-91
2022/04/18 11:16:41;;;;;;;;;;;;;;;18.01;60.20;99614.97;4337087;33;19992;-91
2022/04/18 11:19:07;;;;;;;;;;;;;;;17.84;60.19;99602.88;4324418;33;20777;-92
2022/04/18 11:21:51;;;;;;;;;;;;;;;17.84;60.19;99602.03;4311039;33;19980;-91
2022/04/18 11:24:36;;;;;;;;;;;;;;;18.09;60.20;99602.97;4322075;33;19992;-92
2022/04/18 11:27:02;;;;;;;;;;;;;;;18.38;60.22;99602.84;4308746;33;20648;-91
2022/04/18 11:29:28;;;;;;;;;;;;;;;18.42;60.22;99599.91;4309465;33;19988;-92
2022/04/18 11:31:53;;;;;;;;;;;;;;;18.39;60.23;99607.19;4321513;33;20011;-90
2022/04/18 11:34:19;;;;;;;;;;;;;;;18.20;60.21;99606.69;4309099;33;19988;-89
2022/04/18 11:36:44;;;;;;;;;;;;;;;18.13;60.20;99603.63;4308942;33;19999;-91
2022/04/18 11:39:12;;;;;;;;;;;;;;;17.98;60.19;99609.88;4308528;33;25780;-90
2022/04/18 11:41:37;;;;;;;;;;;;;;;17.72;60.18;99604.50;4321657;33;19990;-91
2022/04/18 11:44:03;;;;;;;;;;;;;;;17.56;60.17;99613.44;4308974;33;20014;-91
2022/04/18 11:46:28;;;;;;;;;;;;;;;17.28;60.15;99617.81;4309205;33;20018;-90
2022/04/18 11:48:54;;;;;;;;;;;;;;;17.06;60.14;99612.16;4321160;33;20306;-89
2022/04/18 11:51:38;;;;;;;;;;;;;;;17.04;60.15;99608.78;4309132;33;20031;-92
2022/04/18 11:54:03;;;;;;;;;;;;;;;16.40;60.11;99623.06;4321451;33;20702;-91
2022/04/18 11:56:28;;;;;;;;;;;;;;;15.78;60.08;99622.22;4308536;33;25177;-91
2022/04/18 11:58:54;;;;;;;;;;;;;;;14.71;60.02;99643.59;4308726;33;21462;-90
2022/04/18 12:06:49;;;;;;;;;;;;;;;13.36;59.94;99651.75;4323212;33;20034;-92
2022/04/18 12:09:21;;;;;;;;;;;;;;;13.22;59.94;99646.28;4309180;33;20419;-91
2022/04/18 12:11:46;;;;;;;;;;;;;;;13.15;59.93;99634.38;4321400;33;19995;-93
2022/04/18 12:14:11;;;;;;;;;;;;;;;13.12;59.94;99632.75;4334230;33;26085;-91
2022/04/18 12:16:37;;;;;;;;;;;;;;;13.19;59.94;99625.53;4309198;33;19995;-91
2022/04/18 12:19:03;;;;;;;;;;;;;;;13.24;59.93;99630.53;4321149;33;20370;-92
2022/04/18 12:21:28;;;;;;;;;;;;;;;13.48;59.96;99617.19;4321093;33;20373;-92
2022/04/18 12:23:57;;;;;;;;;;;;;;;13.55;59.95;99620.41;4321013;33;20336;-92
2022/04/18 12:26:26;;;;;;;;;;;;;;;13.56;59.96;99611.63;4320937;33;19999;-92
2022/04/18 12:28:56;;;;;;;;;;;;;;;14.11;59.99;99609.00;4308559;33;20402;-91
2022/04/18 12:31:21;;;;;;;;;;;;;;;14.58;60.02;99603.22;4308773;33;19979;-91
2022/04/18 12:33:48;;;;;;;;;;;;;;;14.90;60.03;99599.78;4308119;33;23408;-90
2022/04/18 12:36:23;;;;;;;;;;;;;;;15.35;60.05;99591.25;4308788;33;20007;-91
2022/04/18 12:38:49;;;;;;;;;;;;;;;15.55;60.07;99590.19;4333914;33;19988;-90
2022/04/18 12:41:14;;;;;;;;;;;;;;;15.81;60.08;99582.66;4308501;33;20389;-90
2022/04/18 12:43:39;;;;;;;;;;;;;;;15.96;60.09;99584.44;4320014;33;23871;-93
2022/04/18 12:46:09;;;;;;;;;;;;;;;16.07;60.09;99578.56;4306005;33;20043;-90
2022/04/18 12:48:35;;;;;;;;;;;;;;;16.27;60.11;99576.47;4306050;33;19983;-91
2022/04/18 12:51:01;;;;;;;;;;;;;;;16.37;60.11;99571.56;4318309;33;19986;-91
2022/04/18 12:53:45;;;;;;;;;;;;;;;16.51;60.12;99568.94;4319329;33;20023;-91
2022/04/18 12:56:10;;;;;;;;;;;;;;;16.69;60.14;99553.91;4320539;33;20368;-89
2022/04/18 12:58:36;;;;;;;;;;;;;;;17.01;60.15;99553.72;4318240;33;20027;-89
2022/04/18 13:01:01;;;;;;;;;;;;;;;17.09;60.15;99538.34;4318416;33;20000;-90
2022/04/18 13:03:27;;;;;;;;;;;;;;;17.02;60.15;99545.72;4305945;33;25730;-90
2022/04/18 13:05:52;;;;;;;;;;;;;;;17.08;60.15;99537.50;4319866;33;20138;-91
2022/04/18 13:08:18;;;;;;;;;;;;;;;17.21;60.15;99534.09;4306248;33;19984;-89
2022/04/18 13:10:43;;;;;;;;;;;;;;;17.35;60.16;99531.44;4318575;33;19976;-90
2022/04/18 13:13:15;;;;;;;;;;;;;;;17.25;60.16;99525.06;4307223;33;20018;-90
2022/04/18 13:15:41;;;;;;;;;;;;;;;17.46;60.17;99521.06;4320353;33;19988;-90
2022/04/18 13:18:10;;;;;;;;;;;;;;;17.48;60.17;99517.38;4306199;33;20749;-91
2022/04/18 13:20:36;;;;;;;;;;;;;;;17.64;60.17;99517.25;4305776;33;19992;-90
2022/04/18 13:23:01;;;;;;;;;;;;;;;17.72;60.18;99522.03;4317760;33;20416;-91
2022/04/18 13:25:27;;;;;;;;;;;;;;;17.79;60.18;99513.66;4317795;33;20028;-90
2022/04/18 13:27:53;;;;;;;;;;;;;;;17.89;60.19;99507.78;4305535;33;19980;-91
2022/04/18 13:30:19;;;;;;;;;;;;;;;17.92;60.20;99500.53;4305744;33;19996;-91
2022/04/18 13:32:44;;;;;;;;;;;;;;;17.75;60.19;99495.53;4317682;33;20031;-92
2022/04/18 13:35:09;;;;;;;;;;;;;;;17.67;60.18;99503.94;4305519;33;20334;-91
2022/04/18 13:37:35;;;;;;;;;;;;;;;17.62;60.18;99505.97;4305414;33;20291;-91
2022/04/18 13:40:00;;;;;;;;;;;;;;;17.60;60.17;99499.13;4305712;33;19988;-91